createdAt,value
2023-01-26T00:01:19.892Z,100469.75
2023-01-26T00:03:48.704Z,100467.38
2023-01-26T00:06:18.972Z,100469.63
2023-01-26T00:08:48.375Z,100466.13
2023-01-26T00:11:18.633Z,100455.75
2023-01-26T00:13:45.583Z,100450.41
2023-01-26T00:16:15.154Z,100445.09
2023-01-26T00:18:43.665Z,100440.88
2023-01-26T00:21:16.132Z,100444.53
2023-01-26T00:23:43.873Z,100433.31
2023-01-26T00:26:15.193Z,100439.06
2023-01-26T00:28:42.071Z,100429.22
2023-01-26T00:31:13.545Z,100436.81
2023-01-26T00:33:40.596Z,100422.38
2023-01-26T00:36:12.418Z,100421.66
2023-01-26T00:38:41.464Z,100424.34
2023-01-26T00:41:09.567Z,100417.06
2023-01-26T00:43:36.344Z,100418.59
2023-01-26T00:46:03.307Z,100414.94
2023-01-26T00:48:30.034Z,100414.94
2023-01-26T00:50:56.887Z,100406.78
2023-01-26T00:53:25.034Z,100410.59
2023-01-26T00:55:53.735Z,100418.00
2023-01-26T00:58:20.525Z,100411.00
2023-01-26T01:00:47.523Z,100414.53
2023-01-26T01:03:14.325Z,100413.09
2023-01-26T01:05:44.512Z,100408.34
2023-01-26T01:08:12.579Z,100412.84
2023-01-26T01:10:40.642Z,100409.06
2023-01-26T01:13:07.679Z,100409.19
2023-01-26T01:15:34.535Z,100410.19
2023-01-26T01:18:01.337Z,100413.28
2023-01-26T01:20:29.747Z,100420.00
2023-01-26T01:22:56.486Z,100405.00
2023-01-26T01:25:23.293Z,100396.31
2023-01-26T01:27:51.953Z,100400.53
2023-01-26T01:30:19.121Z,100396.31
2023-01-26T01:32:45.907Z,100392.09
2023-01-26T01:35:12.732Z,100396.31
2023-01-26T01:37:39.526Z,100390.72
2023-01-26T01:40:12.094Z,100394.63
2023-01-26T01:42:45.740Z,100400.38
2023-01-26T01:45:42.534Z,100393.50
2023-01-26T01:48:20.549Z,100387.75
2023-01-26T01:50:52.006Z,100391.56
2023-01-26T01:53:26.311Z,100394.09
2023-01-26T01:55:58.868Z,100389.72
2023-01-26T01:58:29.519Z,100383.44
2023-01-26T02:00:58.298Z,100387.19
2023-01-26T02:03:28.575Z,100385.53
2023-01-26T02:06:03.744Z,100378.09
2023-01-26T02:08:36.235Z,100382.44
2023-01-26T02:11:12.580Z,100386.22
2023-01-26T02:13:42.227Z,100376.69
2023-01-26T02:16:10.765Z,100376.81
2023-01-26T02:18:38.264Z,100369.41
2023-01-26T02:21:09.727Z,100360.13
2023-01-26T02:23:54.205Z,100362.53
2023-01-26T02:26:26.084Z,100366.03
2023-01-26T02:28:53.957Z,100365.31
2023-01-26T02:31:24.033Z,100369.53
2023-01-26T02:33:51.342Z,100354.69
2023-01-26T02:36:22.129Z,100364.50
2023-01-26T02:39:04.063Z,100359.31
2023-01-26T02:41:32.557Z,100354.97
2023-01-26T02:43:59.367Z,100352.16
2023-01-26T02:46:26.219Z,100360.44
2023-01-26T02:48:53.204Z,100362.81
2023-01-26T02:51:19.936Z,100369.41
2023-01-26T02:53:47.679Z,100356.81
2023-01-26T02:56:14.498Z,100348.53
2023-01-26T02:58:42.777Z,100352.59
2023-01-26T03:01:10.259Z,100341.94
2023-01-26T03:03:47.437Z,100339.56
2023-01-26T03:06:15.491Z,100338.88
2023-01-26T03:08:42.614Z,100333.25
2023-01-26T03:11:10.031Z,100328.63
2023-01-26T03:13:37.452Z,100335.22
2023-01-26T03:16:08.955Z,100328.34
2023-01-26T03:18:36.292Z,100314.63
2023-01-26T03:21:07.311Z,100315.19
2023-01-26T03:23:34.883Z,100313.63
2023-01-26T03:26:02.609Z,100314.19
2023-01-26T03:28:32.756Z,100317.56
2023-01-26T03:31:00.083Z,100309.28
2023-01-26T03:33:30.027Z,100313.09
2023-01-26T03:35:56.777Z,100314.47
2023-01-26T03:38:24.241Z,100317.41
2023-01-26T03:40:58.081Z,100313.75
2023-01-26T03:43:24.911Z,100315.03
2023-01-26T03:45:51.649Z,100313.91
2023-01-26T03:48:20.497Z,100301.44
2023-01-26T03:50:48.609Z,100309.16
2023-01-26T03:53:17.981Z,100311.69
2023-01-26T03:55:44.793Z,100299.03
2023-01-26T03:58:11.888Z,100301.41
2023-01-26T04:00:38.683Z,100299.59
2023-01-26T04:03:05.411Z,100292.03
2023-01-26T04:05:32.327Z,100296.56
2023-01-26T04:08:04.132Z,100301.59
2023-01-26T04:10:30.979Z,100302.28
2023-01-26T04:13:19.421Z,100304.78
2023-01-26T04:15:53.056Z,100302.84
2023-01-26T04:18:20.355Z,100298.94
2023-01-26T04:20:47.178Z,100301.03
2023-01-26T04:23:19.971Z,100294.59
2023-01-26T04:25:48.893Z,100289.00
2023-01-26T04:28:16.196Z,100290.22
2023-01-26T04:30:43.645Z,100291.09
2023-01-26T04:33:11.120Z,100289.53
2023-01-26T04:35:37.953Z,100297.22
2023-01-26T04:38:05.068Z,100291.22
2023-01-26T04:40:33.450Z,100294.47
2023-01-26T04:43:00.395Z,100291.22
2023-01-26T04:45:27.859Z,100290.66
2023-01-26T04:47:54.917Z,100293.72
2023-01-26T04:50:21.749Z,100292.03
2023-01-26T04:52:48.609Z,100281.97
2023-01-26T04:55:16.843Z,100278.19
2023-01-26T04:57:45.381Z,100284.09
2023-01-26T05:00:13.701Z,100289.81
2023-01-26T05:02:41.300Z,100284.78
2023-01-26T05:05:09.882Z,100284.47
2023-01-26T05:07:37.019Z,100277.50
2023-01-26T05:10:05.447Z,100275.69
2023-01-26T05:13:00.161Z,100281.44
2023-01-26T05:15:41.471Z,100284.50
2023-01-26T05:18:13.251Z,100291.09
2023-01-26T05:20:49.568Z,100289.81
2023-01-26T05:23:18.544Z,100285.34
2023-01-26T05:26:09.611Z,100281.81
2023-01-26T05:29:04.123Z,100282.25
2023-01-26T05:31:31.631Z,100285.63
2023-01-26T05:33:58.618Z,100288.97
2023-01-26T05:36:25.595Z,100283.34
2023-01-26T05:38:52.553Z,100281.97
2023-01-26T05:41:23.695Z,100277.63
2023-01-26T05:44:19.197Z,100274.41
2023-01-26T05:46:51.248Z,100282.38
2023-01-26T05:49:18.176Z,100281.69
2023-01-26T05:51:45.195Z,100287.72
2023-01-26T05:54:13.711Z,100285.72
2023-01-26T05:56:40.509Z,100278.72
2023-01-26T05:59:08.190Z,100286.16
2023-01-26T06:01:36.505Z,100280.16
2023-01-26T06:04:07.306Z,100282.94
2023-01-26T06:06:44.070Z,100289.00
2023-01-26T06:09:23.463Z,100287.84
2023-01-26T06:11:51.231Z,100286.72
2023-01-26T06:14:43.006Z,100280.44
2023-01-26T06:17:13.442Z,100284.63
2023-01-26T06:19:40.437Z,100270.31
2023-01-26T06:22:08.813Z,100272.56
2023-01-26T06:24:37.077Z,100279.28
2023-01-26T06:27:07.035Z,100276.63
2023-01-26T06:29:34.219Z,100287.00
2023-01-26T06:32:01.401Z,100286.28
2023-01-26T06:34:29.785Z,100290.66
2023-01-26T06:36:56.677Z,100290.66
2023-01-26T06:39:28.570Z,100294.84
2023-01-26T06:41:56.467Z,100289.38
2023-01-26T06:44:23.419Z,100302.41
2023-01-26T06:46:50.208Z,100287.72
2023-01-26T06:49:17.152Z,100290.66
2023-01-26T06:52:02.860Z,100293.88
2023-01-26T06:54:48.946Z,100294.03
2023-01-26T06:57:32.907Z,100291.94
2023-01-26T07:00:22.340Z,100288.13
2023-01-26T07:03:21.664Z,100300.88
2023-01-26T07:05:48.441Z,100300.50
2023-01-26T07:08:16.662Z,100301.59
2023-01-26T07:10:43.642Z,100300.78
2023-01-26T07:13:10.609Z,100297.13
2023-01-26T07:15:37.513Z,100295.31
2023-01-26T07:18:04.286Z,100301.59
2023-01-26T07:20:31.406Z,100305.53
2023-01-26T07:22:59.776Z,100308.91
2023-01-26T07:25:28.433Z,100316.16
2023-01-26T07:27:56.507Z,100315.19
2023-01-26T07:30:23.754Z,100310.00
2023-01-26T07:32:50.735Z,100312.66
2023-01-26T07:35:18.260Z,100317.03
2023-01-26T07:37:45.121Z,100324.16
2023-01-26T07:40:13.265Z,100311.13
2023-01-26T07:42:41.756Z,100317.84
2023-01-26T07:45:18.839Z,100312.66
2023-01-26T07:47:45.615Z,100316.16
2023-01-26T07:50:12.652Z,100306.78
2023-01-26T07:52:39.565Z,100311.41
2023-01-26T07:55:07.253Z,100313.66
2023-01-26T07:57:34.365Z,100321.91
2023-01-26T08:00:03.358Z,100314.91
2023-01-26T08:02:38.808Z,100314.06
2023-01-26T08:05:06.800Z,100316.28
2023-01-26T08:07:33.782Z,100316.00
2023-01-26T08:10:01.160Z,100313.63
2023-01-26T08:12:28.326Z,100315.16
2023-01-26T08:14:55.219Z,100317.97
2023-01-26T08:17:23.532Z,100320.38
2023-01-26T08:19:50.606Z,100310.97
2023-01-26T08:22:17.474Z,100311.69
2023-01-26T08:24:45.411Z,100311.25
2023-01-26T08:27:12.261Z,100305.22
2023-01-26T08:29:39.334Z,100316.56
2023-01-26T08:32:06.654Z,100304.53
2023-01-26T08:34:34.941Z,100305.78
2023-01-26T08:37:03.184Z,100300.47
2023-01-26T08:39:30.252Z,100312.53
2023-01-26T08:41:57.041Z,100317.56
2023-01-26T08:44:24.062Z,100306.91
2023-01-26T08:46:51.092Z,100313.78
2023-01-26T08:49:17.832Z,100307.03
2023-01-26T08:51:46.005Z,100304.34
2023-01-26T08:54:12.822Z,100299.75
2023-01-26T08:56:39.645Z,100312.34
2023-01-26T08:59:06.513Z,100304.94
2023-01-26T09:01:33.728Z,100301.28
2023-01-26T09:04:00.477Z,100306.88
2023-01-26T09:06:27.270Z,100302.28
2023-01-26T09:08:55.381Z,100310.41
2023-01-26T09:11:22.441Z,100308.59
2023-01-26T09:13:50.316Z,100307.16
2023-01-26T09:16:20.210Z,100299.22
2023-01-26T09:18:49.492Z,100305.22
2023-01-26T09:21:16.757Z,100306.63
2023-01-26T09:23:44.220Z,100311.53
2023-01-26T09:26:12.623Z,100313.91
2023-01-26T09:28:39.466Z,100308.59
2023-01-26T09:31:09.773Z,100313.19
2023-01-26T09:33:37.633Z,100311.69
2023-01-26T09:36:07.393Z,100317.53
2023-01-26T09:38:34.401Z,100316.28
2023-01-26T09:41:14.426Z,100316.72
2023-01-26T09:43:47.819Z,100310.28
2023-01-26T09:46:23.047Z,100308.31
2023-01-26T09:49:05.109Z,100312.25
2023-01-26T09:51:37.514Z,100310.25
2023-01-26T09:54:19.243Z,100319.53
2023-01-26T09:56:46.080Z,100317.38
2023-01-26T09:59:29.775Z,100316.84
2023-01-26T10:02:16.441Z,100306.88
2023-01-26T10:04:51.256Z,100308.59
2023-01-26T10:07:18.854Z,100301.84
2023-01-26T10:09:53.397Z,100311.78
2023-01-26T10:12:28.318Z,100300.97
2023-01-26T10:15:04.730Z,100303.50
2023-01-26T10:17:37.325Z,100309.13
2023-01-26T10:20:17.896Z,100313.91
2023-01-26T10:22:49.213Z,100311.97
2023-01-26T10:25:19.337Z,100308.44
2023-01-26T10:27:46.822Z,100304.50
2023-01-26T10:30:18.727Z,100306.06
2023-01-26T10:32:51.987Z,100307.72
2023-01-26T10:35:22.959Z,100304.78
2023-01-26T10:37:51.327Z,100295.28
2023-01-26T10:40:19.428Z,100305.63
2023-01-26T10:42:56.190Z,100295.28
2023-01-26T10:45:44.293Z,100289.66
2023-01-26T10:48:20.608Z,100302.56
2023-01-26T10:50:48.462Z,100299.88
2023-01-26T10:53:22.230Z,100294.56
2023-01-26T10:56:01.568Z,100298.50
2023-01-26T10:58:47.238Z,100300.75
2023-01-26T11:01:18.860Z,100292.75
2023-01-26T11:04:04.739Z,100287.44
2023-01-26T11:06:32.621Z,100288.38
2023-01-26T11:09:16.505Z,100280.00
2023-01-26T11:11:57.965Z,100285.06
2023-01-26T11:14:24.795Z,100276.50
2023-01-26T11:17:00.008Z,100278.47
2023-01-26T11:20:05.386Z,100273.97
2023-01-26T11:22:46.450Z,100277.50
2023-01-26T11:25:25.875Z,100272.59
2023-01-26T11:28:14.392Z,100264.75
2023-01-26T11:31:16.380Z,100258.84
2023-01-26T11:34:03.895Z,100261.75
2023-01-26T11:36:48.542Z,100263.75
2023-01-26T11:39:28.400Z,100258.41
2023-01-26T11:42:20.882Z,100261.59
2023-01-26T11:45:09.687Z,100251.22
2023-01-26T11:47:58.749Z,100253.31
2023-01-26T11:50:37.519Z,100249.38
2023-01-26T11:53:35.836Z,100243.47
2023-01-26T11:56:31.735Z,100236.47
2023-01-26T11:59:10.576Z,100241.09
2023-01-26T12:01:43.874Z,100224.66
2023-01-26T12:04:18.773Z,100222.56
2023-01-26T12:06:54.693Z,100227.59
2023-01-26T12:09:30.617Z,100231.22
2023-01-26T12:12:04.831Z,100224.66
2023-01-26T12:14:40.337Z,100217.69
2023-01-26T12:17:33.526Z,100209.53
2023-01-26T12:20:21.341Z,100213.16
2023-01-26T12:23:00.466Z,100212.34
2023-01-26T12:25:34.351Z,100208.47
2023-01-26T12:28:18.208Z,100205.81
2023-01-26T12:30:59.302Z,100216.84
2023-01-26T12:33:26.479Z,100208.41
2023-01-26T12:36:27.765Z,100198.06
2023-01-26T12:39:12.748Z,100191.94
2023-01-26T12:42:06.938Z,100190.69
2023-01-26T12:44:40.766Z,100182.41
2023-01-26T12:47:19.716Z,100184.94
2023-01-26T12:49:58.158Z,100186.91
2023-01-26T12:52:34.057Z,100190.69
2023-01-26T12:55:15.925Z,100183.47
2023-01-26T12:57:51.577Z,100185.00
2023-01-26T13:00:23.803Z,100183.03
2023-01-26T13:02:57.124Z,100175.72
2023-01-26T13:05:31.327Z,100178.25
2023-01-26T13:07:58.478Z,100170.94
2023-01-26T13:10:45.953Z,100168.13
2023-01-26T13:13:31.920Z,100171.09
2023-01-26T13:16:34.115Z,100165.50
2023-01-26T13:19:02.829Z,100162.25
2023-01-26T13:21:44.669Z,100160.63
2023-01-26T13:24:42.860Z,100167.97
2023-01-26T13:27:40.546Z,100166.81
2023-01-26T13:30:32.864Z,100160.63
2023-01-26T13:33:16.606Z,100158.91
2023-01-26T13:35:45.727Z,100167.63
2023-01-26T13:38:30.409Z,100166.25
2023-01-26T13:40:57.501Z,100164.72
2023-01-26T13:43:37.061Z,100161.25
2023-01-26T13:46:17.769Z,100163.94
2023-01-26T13:48:48.045Z,100170.53
2023-01-26T13:51:19.947Z,100166.75
2023-01-26T13:54:00.369Z,100166.28
2023-01-26T13:56:31.470Z,100169.03
2023-01-26T13:59:20.890Z,100164.38
2023-01-26T14:01:50.279Z,100167.16
2023-01-26T14:04:22.187Z,100165.00
2023-01-26T14:06:56.488Z,100173.41
2023-01-26T14:09:28.124Z,100172.13
2023-01-26T14:12:00.569Z,100168.03
2023-01-26T14:14:33.681Z,100172.53
2023-01-26T14:17:27.165Z,100179.69
2023-01-26T14:19:54.484Z,100185.84
2023-01-26T14:22:22.559Z,100182.19
2023-01-26T14:24:52.603Z,100188.81
2023-01-26T14:27:35.069Z,100187.31
2023-01-26T14:30:21.373Z,100185.59
2023-01-26T14:32:49.234Z,100186.41
2023-01-26T14:35:22.671Z,100187.59
2023-01-26T14:37:50.131Z,100179.75
2023-01-26T14:40:21.478Z,100179.97
2023-01-26T14:42:52.428Z,100177.13
2023-01-26T14:45:29.778Z,100174.16
2023-01-26T14:48:01.305Z,100173.66
2023-01-26T14:50:30.087Z,100184.72
2023-01-26T14:52:57.720Z,100176.69
2023-01-26T14:55:29.351Z,100185.50
2023-01-26T14:57:58.180Z,100185.06
2023-01-26T15:00:31.099Z,100188.91
2023-01-26T15:03:01.669Z,100191.72
2023-01-26T15:05:35.045Z,100198.44
2023-01-26T15:08:05.181Z,100197.03
2023-01-26T15:10:39.843Z,100192.66
2023-01-26T15:13:20.867Z,100197.38
2023-01-26T15:16:05.012Z,100192.44
2023-01-26T15:18:33.854Z,100199.03
2023-01-26T15:21:12.543Z,100206.88
2023-01-26T15:23:43.845Z,100208.41
2023-01-26T15:26:25.722Z,100203.47
2023-01-26T15:28:56.204Z,100206.81
2023-01-26T15:31:32.039Z,100205.69
2023-01-26T15:33:59.864Z,100205.84
2023-01-26T15:36:46.123Z,100208.34
2023-01-26T15:39:15.574Z,100207.41
2023-01-26T15:41:44.546Z,100207.13
2023-01-26T15:44:16.020Z,100207.13
2023-01-26T15:46:44.961Z,100213.28
2023-01-26T15:49:12.366Z,100212.16
2023-01-26T15:51:39.778Z,100199.28
2023-01-26T15:54:10.893Z,100206.13
2023-01-26T15:56:37.673Z,100205.59
2023-01-26T15:59:04.642Z,100207.81
2023-01-26T16:01:31.979Z,100205.69
2023-01-26T16:04:00.214Z,100205.31
2023-01-26T16:06:29.361Z,100210.78
2023-01-26T16:08:57.303Z,100207.84
2023-01-26T16:11:30.207Z,100207.59
2023-01-26T16:14:03.367Z,100207.31
2023-01-26T16:16:32.072Z,100211.09
2023-01-26T16:19:00.802Z,100204.38
2023-01-26T16:21:33.557Z,100210.69
2023-01-26T16:24:01.177Z,100209.03
2023-01-26T16:26:29.236Z,100202.16
2023-01-26T16:28:56.949Z,100204.13
2023-01-26T16:31:26.940Z,100203.72
2023-01-26T16:33:53.868Z,100207.91
2023-01-26T16:36:22.755Z,100225.56
2023-01-26T16:38:50.081Z,100224.56
2023-01-26T16:41:24.864Z,100215.03
2023-01-26T16:43:55.128Z,100221.06
2023-01-26T16:46:22.548Z,100222.34
2023-01-26T16:48:49.642Z,100224.56
2023-01-26T16:51:25.161Z,100219.97
2023-01-26T16:53:52.940Z,100214.75
2023-01-26T16:56:20.680Z,100216.41
2023-01-26T16:58:47.525Z,100217.41
2023-01-26T17:01:23.012Z,100222.47
2023-01-26T17:03:51.160Z,100220.50
2023-01-26T17:06:19.689Z,100232.84
2023-01-26T17:08:48.541Z,100232.97
2023-01-26T17:11:19.413Z,100231.44
2023-01-26T17:13:47.166Z,100227.22
2023-01-26T17:16:16.963Z,100231.88
2023-01-26T17:18:44.320Z,100235.09
2023-01-26T17:21:11.913Z,100230.31
2023-01-26T17:23:39.093Z,100238.03
2023-01-26T17:26:08.803Z,100224.03
2023-01-26T17:28:35.584Z,100231.03
2023-01-26T17:31:08.099Z,100227.50
2023-01-26T17:33:34.864Z,100224.31
2023-01-26T17:36:04.332Z,100230.88
2023-01-26T17:38:31.502Z,100235.91
2023-01-26T17:40:59.639Z,100233.53
2023-01-26T17:43:28.374Z,100226.00
2023-01-26T17:46:03.728Z,100224.16
2023-01-26T17:48:32.161Z,100222.63
2023-01-26T17:50:59.404Z,100226.84
2023-01-26T17:53:26.211Z,100239.56
2023-01-26T17:55:53.111Z,100237.34
2023-01-26T17:58:19.866Z,100233.41
2023-01-26T18:00:48.128Z,100225.56
2023-01-26T18:03:14.989Z,100231.03
2023-01-26T18:05:50.475Z,100243.50
2023-01-26T18:08:17.577Z,100242.22
2023-01-26T18:10:44.387Z,100239.84
2023-01-26T18:13:11.158Z,100243.63
2023-01-26T18:15:38.427Z,100231.88
2023-01-26T18:18:06.950Z,100252.88
2023-01-26T18:20:33.933Z,100248.13
2023-01-26T18:23:00.862Z,100242.63
2023-01-26T18:25:27.852Z,100251.19
2023-01-26T18:27:54.947Z,100248.78
2023-01-26T18:30:22.165Z,100249.50
2023-01-26T18:32:48.989Z,100251.19
2023-01-26T18:35:17.290Z,100251.75
2023-01-26T18:37:44.175Z,100247.84
2023-01-26T18:40:12.482Z,100249.50
2023-01-26T18:42:39.720Z,100257.09
2023-01-26T18:45:08.244Z,100250.63
2023-01-26T18:47:35.407Z,100255.66
2023-01-26T18:50:02.414Z,100251.47
2023-01-26T18:52:31.141Z,100243.91
2023-01-26T18:54:58.014Z,100250.22
2023-01-26T18:57:24.947Z,100258.06
2023-01-26T18:59:51.820Z,100252.03
2023-01-26T19:02:18.679Z,100256.22
2023-01-26T19:04:45.556Z,100249.22
2023-01-26T19:07:12.425Z,100254.13
2023-01-26T19:09:40.896Z,100239.56
2023-01-26T19:12:07.935Z,100247.13
2023-01-26T19:14:34.875Z,100253.44
2023-01-26T19:17:02.047Z,100254.84
2023-01-26T19:19:29.139Z,100252.47
2023-01-26T19:21:56.136Z,100252.72
2023-01-26T19:24:23.318Z,100242.53
2023-01-26T19:26:51.722Z,100247.28
2023-01-26T19:29:18.686Z,100244.47
2023-01-26T19:31:45.755Z,100238.03
2023-01-26T19:34:14.488Z,100235.09
2023-01-26T19:36:41.580Z,100238.03
2023-01-26T19:39:08.839Z,100244.34
2023-01-26T19:41:35.939Z,100247.56
2023-01-26T19:44:04.318Z,100239.59
2023-01-26T19:46:33.523Z,100241.25
2023-01-26T19:49:04.917Z,100239.59
2023-01-26T19:51:32.531Z,100237.34
2023-01-26T19:53:59.558Z,100236.78
2023-01-26T19:56:29.352Z,100235.94
2023-01-26T19:58:59.267Z,100243.06
2023-01-26T20:01:30.410Z,100233.84
2023-01-26T20:04:00.330Z,100242.81
2023-01-26T20:06:30.189Z,100242.38
2023-01-26T20:08:57.789Z,100242.78
2023-01-26T20:11:26.918Z,100247.00
2023-01-26T20:13:55.489Z,100243.91
2023-01-26T20:16:22.768Z,100236.78
2023-01-26T20:18:51.015Z,100242.50
2023-01-26T20:21:17.862Z,100239.31
2023-01-26T20:23:55.732Z,100242.78
2023-01-26T20:26:25.993Z,100255.09
2023-01-26T20:28:53.732Z,100251.88
2023-01-26T20:31:24.456Z,100252.31
2023-01-26T20:33:54.020Z,100252.31
2023-01-26T20:36:24.112Z,100250.34
2023-01-26T20:38:51.266Z,100249.22
2023-01-26T20:41:21.484Z,100240.84
2023-01-26T20:43:59.053Z,100247.00
2023-01-26T20:46:28.124Z,100247.00
2023-01-26T20:48:57.158Z,100250.47
2023-01-26T20:51:28.433Z,100251.19
2023-01-26T20:53:55.907Z,100253.41
2023-01-26T20:56:23.524Z,100247.84
2023-01-26T20:58:53.609Z,100251.03
2023-01-26T21:01:22.883Z,100247.00
2023-01-26T21:03:50.310Z,100251.19
2023-01-26T21:06:21.672Z,100242.25
2023-01-26T21:08:52.378Z,100247.69
2023-01-26T21:11:20.664Z,100239.28
2023-01-26T21:13:47.477Z,100240.69
2023-01-26T21:16:16.858Z,100239.31
2023-01-26T21:18:45.064Z,100226.25
2023-01-26T21:21:14.398Z,100226.84
2023-01-26T21:23:42.485Z,100220.53
2023-01-26T21:26:16.761Z,100222.94
2023-01-26T21:28:44.578Z,100225.31
2023-01-26T21:31:14.145Z,100216.06
2023-01-26T21:33:47.844Z,100224.03
2023-01-26T21:36:18.107Z,100226.56
2023-01-26T21:38:49.176Z,100225.72
2023-01-26T21:41:19.680Z,100224.72
2023-01-26T21:43:46.396Z,100221.38
2023-01-26T21:46:13.189Z,100229.63
2023-01-26T21:48:39.992Z,100216.47
2023-01-26T21:51:06.935Z,100215.78
2023-01-26T21:53:33.962Z,100216.75
2023-01-26T21:56:02.053Z,100220.97
2023-01-26T21:58:28.813Z,100214.38
2023-01-26T22:01:05.915Z,100219.13
2023-01-26T22:03:32.840Z,100212.69
2023-01-26T22:06:00.034Z,100223.47
2023-01-26T22:08:26.800Z,100218.16
2023-01-26T22:10:53.980Z,100217.84
2023-01-26T22:13:23.155Z,100218.72
2023-01-26T22:15:51.039Z,100210.72
2023-01-26T22:18:18.396Z,100201.91
2023-01-26T22:20:45.411Z,100207.22
2023-01-26T22:23:12.200Z,100204.88
2023-01-26T22:25:40.610Z,100208.75
2023-01-26T22:28:08.065Z,100206.97
2023-01-26T22:30:36.302Z,100203.03
2023-01-26T22:33:03.550Z,100199.41
2023-01-26T22:35:32.194Z,100201.22
2023-01-26T22:38:00.048Z,100199.53
2023-01-26T22:40:26.878Z,100190.44
2023-01-26T22:42:54.009Z,100197.03
2023-01-26T22:45:20.812Z,100191.00
2023-01-26T22:47:49.159Z,100190.56
2023-01-26T22:50:17.576Z,100192.81
2023-01-26T22:52:44.319Z,100191.41
2023-01-26T22:55:11.163Z,100187.78
2023-01-26T22:57:37.919Z,100176.16
2023-01-26T23:00:07.153Z,100170.97
2023-01-26T23:02:34.110Z,100174.06
2023-01-26T23:05:02.176Z,100180.91
2023-01-26T23:07:29.086Z,100181.91
2023-01-26T23:09:55.837Z,100177.38
2023-01-26T23:12:22.738Z,100180.06
2023-01-26T23:14:49.616Z,100168.88
2023-01-26T23:17:16.481Z,100164.38
2023-01-26T23:19:43.917Z,100172.34
2023-01-26T23:22:12.090Z,100169.56
2023-01-26T23:24:38.883Z,100171.41
2023-01-26T23:27:05.724Z,100166.59
2023-01-26T23:29:32.781Z,100166.47
2023-01-26T23:31:59.605Z,100162.69
2023-01-26T23:34:26.499Z,100165.22
2023-01-26T23:36:53.228Z,100162.84
2023-01-26T23:39:21.333Z,100164.66
2023-01-26T23:41:48.130Z,100162.00
2023-01-26T23:44:15.186Z,100151.78
2023-01-26T23:46:42.043Z,100155.81
2023-01-26T23:49:09.207Z,100159.19
2023-01-26T23:51:36.346Z,100156.66
2023-01-26T23:54:03.238Z,100168.03
2023-01-26T23:56:31.446Z,100157.38
2023-01-26T23:58:58.234Z,100159.03
